createdAt,value
2019-04-12T00:00:45.359Z,0
2019-04-12T00:01:46.122Z,0
2019-04-12T00:02:46.883Z,0
2019-04-12T00:03:47.087Z,0
2019-04-12T00:04:47.567Z,0
2019-04-12T00:05:47.946Z,0
2019-04-12T00:06:48.200Z,0
2019-04-12T00:07:48.960Z,0
2019-04-12T00:08:49.443Z,0
2019-04-12T00:09:49.926Z,0
2019-04-12T00:10:50.688Z,0
2019-04-12T00:11:50.894Z,0
2019-04-12T00:12:52.656Z,0
2019-04-12T00:13:52.856Z,0
2019-04-12T00:14:53.072Z,0
2019-04-12T00:15:54.001Z,0
2019-04-12T00:16:54.758Z,0
2019-04-12T00:17:55.524Z,0
2019-04-12T00:18:56.565Z,0
2019-04-12T00:19:57.604Z,0
2019-04-12T00:20:58.920Z,0
2019-04-12T00:21:59.691Z,0
2019-04-12T00:23:00.176Z,0
2019-04-12T00:24:00.663Z,0
2019-04-12T00:25:02.285Z,0
2019-04-12T00:26:02.807Z,0
2019-04-12T00:27:03.290Z,0
2019-04-12T00:28:03.547Z,0
2019-04-12T00:29:03.794Z,0
2019-04-12T00:30:04.564Z,0
2019-04-12T00:31:06.171Z,0
2019-04-12T00:32:07.214Z,0
2019-04-12T00:33:07.529Z,0
2019-04-12T00:34:08.852Z,0
2019-04-12T00:35:09.336Z,0
2019-04-12T00:36:10.866Z,0
2019-04-12T00:37:11.403Z,0
2019-04-12T00:38:11.925Z,0
2019-04-12T00:39:12.686Z,0
2019-04-12T00:40:13.720Z,0
2019-04-12T00:41:14.810Z,0
2019-04-12T00:42:15.298Z,0
2019-04-12T00:43:16.055Z,0
2019-04-12T00:44:17.382Z,0
2019-04-12T00:45:17.872Z,0
2019-04-12T00:46:18.865Z,0
2019-04-12T00:47:19.909Z,0
2019-04-12T00:48:19.947Z,0
2019-04-12T00:49:20.711Z,0
2019-04-12T00:50:22.021Z,0
2019-04-12T00:51:22.502Z,0
2019-04-12T00:52:23.300Z,0
2019-04-12T00:53:24.086Z,0
2019-04-12T00:54:24.591Z,0
2019-04-12T00:55:25.632Z,0
2019-04-12T00:56:25.562Z,0
2019-04-12T00:57:26.889Z,0
2019-04-12T00:58:26.670Z,0
2019-04-12T00:59:27.136Z,0
2019-04-12T01:00:28.507Z,0
2019-04-12T01:01:30.452Z,0
2019-04-12T01:02:31.086Z,0
2019-04-12T01:03:31.842Z,0
2019-04-12T01:04:33.229Z,0
2019-04-12T01:05:33.720Z,0
2019-04-12T01:06:34.972Z,0
2019-04-12T01:07:35.754Z,0
2019-04-12T01:08:36.508Z,0
2019-04-12T01:09:37.265Z,0
2019-04-12T01:10:38.067Z,0
2019-04-12T01:11:38.625Z,0
2019-04-12T01:12:39.481Z,0
2019-04-12T01:13:41.948Z,0
2019-04-12T01:14:42.439Z,0
2019-04-12T01:15:42.921Z,0
2019-04-12T01:16:43.143Z,0
2019-04-12T01:17:43.642Z,0
2019-04-12T01:18:44.337Z,0
2019-04-12T01:19:45.101Z,0
2019-04-12T01:20:45.904Z,0
2019-04-12T01:21:47.223Z,0
2019-04-12T01:22:47.255Z,0
2019-04-12T01:23:48.582Z,0
2019-04-12T01:25:00.197Z,0
2019-04-12T01:25:59.008Z,0
2019-04-12T01:26:59.762Z,0
2019-04-12T01:28:00.797Z,0
2019-04-12T01:29:01.561Z,0
2019-04-12T01:30:03.050Z,0
2019-04-12T01:31:02.540Z,0
2019-04-12T01:32:03.308Z,0
2019-04-12T01:33:04.441Z,0
2019-04-12T01:34:04.662Z,0
2019-04-12T01:35:05.417Z,0
2019-04-12T01:36:05.968Z,0
2019-04-12T01:37:06.999Z,0
2019-04-12T01:38:08.073Z,0
2019-04-12T01:39:09.120Z,0
2019-04-12T01:40:09.969Z,0
2019-04-12T01:41:10.840Z,0
2019-04-12T01:42:11.658Z,0
2019-04-12T01:43:12.251Z,0
2019-04-12T01:44:13.312Z,0
2019-04-12T01:45:14.184Z,0
2019-04-12T01:46:15.008Z,0
2019-04-12T01:47:15.771Z,0
2019-04-12T01:48:16.538Z,0
2019-04-12T01:49:17.294Z,0
2019-04-12T01:50:18.075Z,0
2019-04-12T01:51:18.557Z,0
2019-04-12T01:52:19.199Z,0
2019-04-12T01:53:19.680Z,0
2019-04-12T01:54:20.165Z,0
2019-04-12T01:55:20.654Z,0
2019-04-12T01:56:21.650Z,0
2019-04-12T01:57:22.415Z,0
2019-04-12T01:58:22.895Z,0
2019-04-12T01:59:23.147Z,0
2019-04-12T02:00:23.884Z,0
2019-04-12T02:01:24.760Z,0
2019-04-12T02:02:25.292Z,0
2019-04-12T02:03:26.055Z,0
2019-04-12T02:04:26.829Z,0
2019-04-12T02:05:27.870Z,0
2019-04-12T02:06:28.834Z,0
2019-04-12T02:07:30.971Z,0
2019-04-12T02:08:31.301Z,0
2019-04-12T02:09:32.139Z,0
2019-04-12T02:10:33.004Z,0
2019-04-12T02:11:33.407Z,0
2019-04-12T02:12:34.056Z,0
2019-04-12T02:13:34.280Z,0
2019-04-12T02:14:35.044Z,0
2019-04-12T02:15:35.247Z,0
2019-04-12T02:16:36.251Z,0
2019-04-12T02:17:36.729Z,0
2019-04-12T02:18:37.779Z,0
2019-04-12T02:19:37.539Z,0
2019-04-12T02:20:38.299Z,0
2019-04-12T02:21:38.501Z,0
2019-04-12T02:22:39.822Z,0
2019-04-12T02:23:40.861Z,0
2019-04-12T02:24:41.348Z,0
2019-04-12T02:25:42.120Z,0
2019-04-12T02:26:41.783Z,0
2019-04-12T02:27:42.543Z,0
2019-04-12T02:28:43.869Z,0
2019-04-12T02:29:43.949Z,0
2019-04-12T02:30:45.096Z,0
2019-04-12T02:31:45.992Z,0
2019-04-12T02:32:47.166Z,0
2019-04-12T02:33:47.218Z,0
2019-04-12T02:34:49.371Z,0
2019-04-12T02:35:50.326Z,0
2019-04-12T02:36:51.292Z,0
2019-04-12T02:37:52.447Z,0
2019-04-12T02:38:52.843Z,0
2019-04-12T02:39:53.915Z,0
2019-04-12T02:40:54.264Z,0
2019-04-12T02:41:55.879Z,0
2019-04-12T02:42:56.514Z,0
2019-04-12T02:43:57.408Z,0
2019-04-12T02:44:58.299Z,0
2019-04-12T02:45:59.505Z,0
2019-04-12T02:46:58.970Z,0
2019-04-12T02:48:00.353Z,0
2019-04-12T02:49:01.056Z,0
2019-04-12T02:50:01.421Z,0
2019-04-12T02:51:02.324Z,0
2019-04-12T02:52:02.976Z,0
2019-04-12T02:53:04.243Z,0
2019-04-12T02:54:03.940Z,0
2019-04-12T02:55:04.606Z,0
2019-04-12T02:56:05.831Z,0
2019-04-12T02:57:05.785Z,0
2019-04-12T02:58:06.996Z,0
2019-04-12T02:59:07.757Z,0
2019-04-12T03:00:08.398Z,0
2019-04-12T03:01:08.780Z,0
2019-04-12T03:02:09.471Z,0
2019-04-12T03:03:09.235Z,0
2019-04-12T03:04:10.020Z,0
2019-04-12T03:05:11.334Z,0
2019-04-12T03:06:12.121Z,0
2019-04-12T03:07:13.451Z,0
2019-04-12T03:08:14.361Z,0
2019-04-12T03:09:13.725Z,0
2019-04-12T03:10:15.363Z,0
2019-04-12T03:11:15.465Z,0
2019-04-12T03:12:16.825Z,0
2019-04-12T03:13:17.485Z,0
2019-04-12T03:14:18.589Z,0
2019-04-12T03:15:19.502Z,0
2019-04-12T03:16:19.272Z,0
2019-04-12T03:17:20.675Z,0
2019-04-12T03:18:20.815Z,0
2019-04-12T03:19:21.701Z,0
2019-04-12T03:20:22.387Z,0
2019-04-12T03:21:23.039Z,0
2019-04-12T03:22:23.367Z,0
2019-04-12T03:23:24.535Z,0
2019-04-12T03:24:24.858Z,0
2019-04-12T03:25:24.911Z,0
2019-04-12T03:26:26.858Z,0
2019-04-12T03:27:27.502Z,0
2019-04-12T03:28:27.563Z,0
2019-04-12T03:29:27.615Z,0
2019-04-12T03:30:28.436Z,0
2019-04-12T03:31:30.557Z,0
2019-04-12T03:32:31.565Z,0
2019-04-12T03:33:30.424Z,0
2019-04-12T03:34:32.115Z,0
2019-04-12T03:35:32.783Z,0
2019-04-12T03:36:33.727Z,0
2019-04-12T03:37:33.587Z,0
2019-04-12T03:38:34.925Z,0
2019-04-12T03:39:36.533Z,0
2019-04-12T03:40:37.434Z,0
2019-04-12T03:41:37.489Z,0
2019-04-12T03:42:39.473Z,0
2019-04-12T03:43:39.283Z,0
2019-04-12T03:44:40.333Z,0
2019-04-12T03:45:40.713Z,0
2019-04-12T03:46:41.589Z,0
2019-04-12T03:47:42.938Z,0
2019-04-12T03:48:42.721Z,0
2019-04-12T03:49:44.152Z,0
2019-04-12T03:50:45.207Z,0
2019-04-12T03:51:46.550Z,0
2019-04-12T03:52:47.934Z,0
2019-04-12T03:53:48.527Z,0
2019-04-12T03:54:49.131Z,0
2019-04-12T03:55:49.476Z,0
2019-04-12T03:56:50.374Z,0
2019-04-12T03:57:50.879Z,0
2019-04-12T03:58:52.480Z,0
2019-04-12T03:59:52.823Z,0
2019-04-12T04:00:52.895Z,0
2019-04-12T04:01:54.250Z,0
2019-04-12T04:02:54.022Z,0
2019-04-12T04:03:54.873Z,0
2019-04-12T04:04:56.509Z,0
2019-04-12T04:05:56.852Z,0
2019-04-12T04:06:58.171Z,0
2019-04-12T04:07:58.978Z,0
2019-04-12T04:09:00.019Z,0
2019-04-12T04:10:01.268Z,0
2019-04-12T04:11:02.488Z,0
2019-04-12T04:12:03.416Z,0
2019-04-12T04:13:03.467Z,0
2019-04-12T04:14:04.113Z,0
2019-04-12T04:15:04.487Z,0
2019-04-12T04:16:05.565Z,0
2019-04-12T04:17:06.742Z,0
2019-04-12T04:18:07.374Z,0
2019-04-12T04:19:07.969Z,0
2019-04-12T04:20:09.847Z,0
2019-04-12T04:21:10.196Z,0
2019-04-12T04:22:11.013Z,0
2019-04-12T04:23:12.632Z,0
2019-04-12T04:24:14.004Z,0
2019-04-12T04:25:14.625Z,0
2019-04-12T04:26:26.820Z,0
2019-04-12T04:27:26.497Z,0
2019-04-12T04:28:27.686Z,0
2019-04-12T04:29:27.764Z,0
2019-04-12T04:30:29.240Z,0
2019-04-12T04:31:29.881Z,0
2019-04-12T04:32:31.292Z,0
2019-04-12T04:33:31.632Z,0
2019-04-12T04:34:32.686Z,0
2019-04-12T04:35:33.573Z,0
2019-04-12T04:36:34.722Z,0
2019-04-12T04:37:33.703Z,0
2019-04-12T04:38:35.578Z,0
2019-04-12T04:39:35.941Z,0
2019-04-12T04:40:37.321Z,0
2019-04-12T04:41:38.363Z,0
2019-04-12T04:42:39.212Z,0
2019-04-12T04:43:41.097Z,0
2019-04-12T04:44:41.983Z,0
2019-04-12T04:45:42.305Z,0
2019-04-12T04:46:42.416Z,0
2019-04-12T04:47:45.167Z,0
2019-04-12T04:48:44.522Z,0
2019-04-12T04:49:45.736Z,0
2019-04-12T04:50:46.079Z,0
2019-04-12T04:51:46.407Z,0
2019-04-12T04:52:47.168Z,0
2019-04-12T04:53:47.928Z,0
2019-04-12T04:54:48.410Z,0
2019-04-12T04:55:49.444Z,0
2019-04-12T04:56:49.923Z,0
2019-04-12T04:57:50.448Z,0
2019-04-12T04:58:50.966Z,0
2019-04-12T04:59:51.769Z,0
2019-04-12T05:00:53.409Z,0
2019-04-12T05:01:52.945Z,0
2019-04-12T05:02:53.159Z,0
2019-04-12T05:03:53.927Z,0
2019-04-12T05:04:55.251Z,0
2019-04-12T05:05:56.377Z,0
2019-04-12T05:06:56.578Z,0
2019-04-12T05:07:58.191Z,0
2019-04-12T05:08:58.952Z,5.63
2019-04-12T05:09:59.708Z,5.63
2019-04-12T05:11:00.205Z,5.63
2019-04-12T05:12:00.725Z,5.63
2019-04-12T05:13:02.406Z,5.63
2019-04-12T05:14:02.463Z,5.63
2019-04-12T05:15:03.527Z,5.63
2019-04-12T05:16:04.613Z,5.63
2019-04-12T05:17:05.661Z,5.63
2019-04-12T05:18:05.695Z,5.63
2019-04-12T05:19:07.330Z,5.63
2019-04-12T05:20:06.814Z,5.63
2019-04-12T05:21:07.296Z,5.63
2019-04-12T05:22:07.798Z,11.25
2019-04-12T05:23:08.557Z,11.25
2019-04-12T05:24:09.037Z,11.25
2019-04-12T05:25:10.131Z,11.25
2019-04-12T05:26:10.173Z,11.25
2019-04-12T05:27:11.515Z,11.25
2019-04-12T05:28:12.044Z,11.25
2019-04-12T05:29:12.813Z,11.25
2019-04-12T05:30:13.295Z,11.25
2019-04-12T05:31:14.059Z,11.25
2019-04-12T05:32:14.593Z,11.25
2019-04-12T05:33:15.673Z,11.25
2019-04-12T05:34:16.161Z,11.25
2019-04-12T05:35:16.643Z,16.88
2019-04-12T05:36:18.518Z,16.88
2019-04-12T05:37:18.558Z,16.88
2019-04-12T05:38:18.797Z,16.88
2019-04-12T05:39:19.870Z,16.88
2019-04-12T05:40:21.466Z,22.5
2019-04-12T05:41:21.734Z,22.5
2019-04-12T05:42:22.506Z,22.5
2019-04-12T05:43:24.102Z,22.5
2019-04-12T05:44:23.344Z,22.5
2019-04-12T05:45:23.831Z,22.5
2019-04-12T05:46:24.802Z,22.5
2019-04-12T05:47:25.451Z,22.5
2019-04-12T05:48:26.712Z,22.5
2019-04-12T05:49:27.473Z,22.5
2019-04-12T05:50:27.956Z,28.13
2019-04-12T05:51:29.479Z,28.13
2019-04-12T05:52:29.104Z,28.13
2019-04-12T05:53:33.863Z,28.13
2019-04-12T05:54:37.489Z,28.13
2019-04-12T05:55:40.352Z,28.13
2019-04-12T05:56:41.150Z,33.75
2019-04-12T05:57:41.872Z,33.75
2019-04-12T05:58:42.284Z,33.75
2019-04-12T05:59:43.620Z,33.75
2019-04-12T06:00:49.499Z,33.75
2019-04-12T06:00:54.698Z,33.75
2019-04-12T06:02:00.352Z,33.75
2019-04-12T06:02:05.810Z,33.75
2019-04-12T06:03:05.576Z,39.38
2019-04-12T06:04:08.840Z,39.38
2019-04-12T06:05:11.339Z,39.38
2019-04-12T06:06:09.233Z,39.38
2019-04-12T06:07:10.295Z,33.75
2019-04-12T06:08:11.618Z,33.75
2019-04-12T06:09:11.905Z,33.75
2019-04-12T06:10:13.864Z,28.13
2019-04-12T06:11:14.670Z,28.13
2019-04-12T06:12:16.028Z,28.13
2019-04-12T06:13:16.738Z,28.13
2019-04-12T06:14:17.443Z,28.13
2019-04-12T06:15:17.929Z,28.13
2019-04-12T06:16:19.522Z,28.13
2019-04-12T06:17:20.012Z,28.13
2019-04-12T06:18:22.462Z,28.13
2019-04-12T06:19:24.389Z,28.13
2019-04-12T06:20:23.573Z,28.13
2019-04-12T06:21:24.064Z,28.13
2019-04-12T06:22:25.145Z,28.13
2019-04-12T06:23:27.394Z,33.75
2019-04-12T06:24:26.466Z,33.75
2019-04-12T06:25:27.994Z,33.75
2019-04-12T06:26:28.251Z,33.75
2019-04-12T06:27:28.746Z,33.75
2019-04-12T06:28:30.454Z,33.75
2019-04-12T06:29:30.002Z,33.75
2019-04-12T06:30:30.501Z,33.75
2019-04-12T06:31:31.021Z,33.75
2019-04-12T06:32:31.572Z,33.75
2019-04-12T06:33:32.083Z,33.75
2019-04-12T06:34:32.863Z,33.75
2019-04-12T06:35:34.042Z,33.75
2019-04-12T06:36:34.250Z,33.75
2019-04-12T06:37:35.290Z,33.75
2019-04-12T06:38:36.123Z,33.75
2019-04-12T06:39:35.772Z,28.13
2019-04-12T06:40:37.093Z,33.75
2019-04-12T06:41:43.197Z,33.75
2019-04-12T06:41:48.239Z,33.75
2019-04-12T06:42:49.833Z,33.75
2019-04-12T06:43:51.344Z,33.75
2019-04-12T06:44:49.690Z,33.75
2019-04-12T06:45:50.518Z,33.75
2019-04-12T06:46:53.851Z,39.38
2019-04-12T06:47:52.121Z,39.38
2019-04-12T06:48:53.104Z,39.38
2019-04-12T06:49:53.314Z,39.38
2019-04-12T06:50:54.102Z,39.38
2019-04-12T06:51:54.864Z,45
2019-04-12T06:52:56.410Z,45
2019-04-12T06:53:57.172Z,45
2019-04-12T06:54:57.936Z,45
2019-04-12T06:55:58.679Z,45
2019-04-12T06:56:59.222Z,45
2019-04-12T06:58:00.014Z,45
2019-04-12T06:59:01.196Z,50.63
2019-04-12T07:00:02.257Z,50.63
2019-04-12T07:01:03.209Z,50.63
2019-04-12T07:02:04.337Z,50.63
2019-04-12T07:03:05.145Z,50.63
2019-04-12T07:04:06.487Z,50.63
2019-04-12T07:05:07.380Z,45
2019-04-12T07:06:07.700Z,50.63
2019-04-12T07:07:07.827Z,50.63
2019-04-12T07:08:10.471Z,56.25
2019-04-12T07:09:09.192Z,56.25
2019-04-12T07:10:09.719Z,56.25
2019-04-12T07:11:10.503Z,56.25
2019-04-12T07:12:11.864Z,56.25
2019-04-12T07:13:11.527Z,56.25
2019-04-12T07:14:12.294Z,56.25
2019-04-12T07:15:12.784Z,56.25
2019-04-12T07:16:15.392Z,56.25
2019-04-12T07:17:14.395Z,56.25
2019-04-12T07:18:14.881Z,56.25
2019-04-12T07:19:15.682Z,61.88
2019-04-12T07:20:17.022Z,61.88
2019-04-12T07:21:18.062Z,61.88
2019-04-12T07:22:20.935Z,61.88
2019-04-12T07:23:20.042Z,61.88
2019-04-12T07:24:21.130Z,61.88
2019-04-12T07:25:21.534Z,67.5
2019-04-12T07:26:22.583Z,73.13
2019-04-12T07:27:36.834Z,73.13
2019-04-12T07:28:33.645Z,78.75
2019-04-12T07:29:34.736Z,78.75
2019-04-12T07:30:35.503Z,78.75
2019-04-12T07:31:35.708Z,73.13
2019-04-12T07:32:36.485Z,73.13
2019-04-12T07:33:39.399Z,73.13
2019-04-12T07:34:40.823Z,73.13
2019-04-12T07:35:39.034Z,73.13
2019-04-12T07:36:43.060Z,73.13
2019-04-12T07:37:39.795Z,78.75
2019-04-12T07:38:41.050Z,78.75
2019-04-12T07:39:41.549Z,78.75
2019-04-12T07:40:42.591Z,78.75
2019-04-12T07:41:43.359Z,73.13
2019-04-12T07:42:44.383Z,73.13
2019-04-12T07:43:45.480Z,73.13
2019-04-12T07:44:48.688Z,73.13
2019-04-12T07:45:46.523Z,73.13
2019-04-12T07:46:47.438Z,67.5
2019-04-12T07:47:48.125Z,67.5
2019-04-12T07:48:49.112Z,67.5
2019-04-12T07:49:49.869Z,73.13
2019-04-12T07:50:50.672Z,73.13
2019-04-12T07:51:54.112Z,73.13
2019-04-12T07:52:55.751Z,73.13
2019-04-12T07:53:55.517Z,73.13
2019-04-12T07:54:55.384Z,78.75
2019-04-12T07:55:55.568Z,78.75
2019-04-12T07:56:56.328Z,78.75
2019-04-12T07:57:56.842Z,78.75
2019-04-12T07:59:08.389Z,78.75
2019-04-12T08:00:08.206Z,84.38
2019-04-12T08:01:09.545Z,90
2019-04-12T08:02:09.035Z,90
2019-04-12T08:03:10.074Z,90
2019-04-12T08:04:11.189Z,90
2019-04-12T08:05:12.260Z,90
2019-04-12T08:06:13.024Z,90
2019-04-12T08:07:14.079Z,90
2019-04-12T08:08:14.564Z,95.63
2019-04-12T08:09:15.326Z,90
2019-04-12T08:10:15.644Z,90
2019-04-12T08:11:16.454Z,95.63
2019-04-12T08:12:17.499Z,90
2019-04-12T08:13:17.642Z,95.63
2019-04-12T08:14:21.739Z,95.63
2019-04-12T08:15:19.234Z,95.63
2019-04-12T08:16:20.166Z,101.25
2019-04-12T08:17:20.671Z,106.88
2019-04-12T08:18:22.709Z,106.88
2019-04-12T08:19:23.587Z,112.5
2019-04-12T08:20:23.844Z,112.5
2019-04-12T08:21:23.892Z,106.88
2019-04-12T08:22:24.982Z,106.88
2019-04-12T08:23:25.708Z,112.5
2019-04-12T08:24:25.860Z,106.88
2019-04-12T08:25:27.597Z,106.88
2019-04-12T08:26:28.609Z,112.5
2019-04-12T08:27:29.214Z,118.13
2019-04-12T08:28:30.006Z,123.75
2019-04-12T08:29:29.547Z,123.75
2019-04-12T08:30:31.282Z,129.38
2019-04-12T08:31:31.992Z,129.38
2019-04-12T08:32:32.107Z,129.38
2019-04-12T08:33:33.292Z,129.38
2019-04-12T08:34:34.568Z,129.38
2019-04-12T08:35:35.439Z,129.38
2019-04-12T08:36:37.636Z,135
2019-04-12T08:37:37.716Z,135
2019-04-12T08:38:38.781Z,140.63
2019-04-12T08:39:44.463Z,140.63
2019-04-12T08:39:50.152Z,140.63
2019-04-12T08:40:51.332Z,140.63
2019-04-12T08:41:55.663Z,140.63
2019-04-12T08:42:55.457Z,135
2019-04-12T08:44:00.060Z,140.63
2019-04-12T08:44:08.328Z,140.63
2019-04-12T08:45:09.327Z,140.63
2019-04-12T08:46:07.784Z,140.63
2019-04-12T08:47:20.755Z,140.63
2019-04-12T08:48:20.057Z,140.63
2019-04-12T08:49:21.072Z,140.63
2019-04-12T08:50:20.981Z,140.63
2019-04-12T08:51:37.454Z,135
2019-04-12T08:51:43.570Z,135
2019-04-12T08:52:45.689Z,135
2019-04-12T08:53:44.130Z,135
2019-04-12T08:54:45.919Z,135
2019-04-12T08:55:46.406Z,135
2019-04-12T08:56:48.412Z,135
2019-04-12T08:57:48.488Z,140.63
2019-04-12T08:58:49.681Z,146.25
2019-04-12T08:59:51.227Z,157.5
2019-04-12T09:00:51.695Z,163.13
2019-04-12T09:01:51.541Z,168.75
2019-04-12T09:03:04.234Z,168.75
2019-04-12T09:04:07.524Z,168.75
2019-04-12T09:05:07.511Z,168.75
2019-04-12T09:06:11.499Z,174.38
2019-04-12T09:06:18.381Z,168.75
2019-04-12T09:07:21.622Z,168.75
2019-04-12T09:08:20.795Z,163.13
2019-04-12T09:09:22.868Z,157.5
2019-04-12T09:10:22.903Z,157.5
2019-04-12T09:11:24.200Z,151.88
2019-04-12T09:12:25.296Z,157.5
2019-04-12T09:13:25.631Z,157.5
2019-04-12T09:14:26.688Z,157.5
2019-04-12T09:15:26.772Z,163.13
2019-04-12T09:16:26.721Z,168.75
2019-04-12T09:17:28.036Z,180
2019-04-12T09:18:39.048Z,180
2019-04-12T09:19:38.655Z,191.25
2019-04-12T09:20:39.553Z,191.25
2019-04-12T09:21:39.871Z,196.88
2019-04-12T09:22:41.354Z,202.5
2019-04-12T09:23:42.821Z,208.13
2019-04-12T09:24:42.256Z,208.13
2019-04-12T09:25:43.619Z,213.75
2019-04-12T09:26:43.195Z,208.13
2019-04-12T09:27:45.105Z,213.75
2019-04-12T09:28:47.142Z,213.75
2019-04-12T09:29:46.959Z,213.75
2019-04-12T09:30:48.705Z,213.75
2019-04-12T09:31:48.573Z,219.38
2019-04-12T09:32:50.345Z,219.38
2019-04-12T09:33:50.580Z,219.38
2019-04-12T09:34:50.722Z,219.38
2019-04-12T09:35:52.032Z,219.38
2019-04-12T09:36:52.627Z,225
2019-04-12T09:37:53.535Z,225
2019-04-12T09:38:54.518Z,225
2019-04-12T09:39:54.616Z,225
2019-04-12T09:40:59.847Z,230.63
2019-04-12T09:41:58.298Z,230.63
2019-04-12T09:42:57.700Z,230.63
2019-04-12T09:43:58.860Z,230.63
2019-04-12T09:44:59.900Z,230.63
2019-04-12T09:45:59.794Z,230.63
2019-04-12T09:47:00.678Z,230.63
2019-04-12T09:48:01.507Z,230.63
2019-04-12T09:49:02.605Z,230.63
2019-04-12T09:50:04.058Z,236.25
2019-04-12T09:51:04.793Z,236.25
2019-04-12T09:52:06.329Z,236.25
2019-04-12T09:53:07.142Z,241.88
2019-04-12T09:54:06.951Z,247.5
2019-04-12T09:55:07.953Z,264.38
2019-04-12T09:56:07.823Z,270
2019-04-12T09:57:09.522Z,281.25
2019-04-12T09:58:10.330Z,303.75
2019-04-12T09:59:11.367Z,303.75
2019-04-12T10:00:12.519Z,315
2019-04-12T10:01:15.181Z,315
2019-04-12T10:02:17.509Z,303.75
2019-04-12T10:03:18.263Z,286.88
2019-04-12T10:04:21.848Z,275.63
2019-04-12T10:05:19.744Z,264.38
2019-04-12T10:06:21.817Z,264.38
2019-04-12T10:07:23.342Z,264.38
2019-04-12T10:08:22.410Z,270
2019-04-12T10:09:33.229Z,270
2019-04-12T10:10:34.113Z,275.63
2019-04-12T10:11:34.211Z,275.63
2019-04-12T10:12:34.854Z,281.25
2019-04-12T10:13:35.082Z,286.88
2019-04-12T10:14:36.046Z,286.88
2019-04-12T10:15:39.144Z,286.88
2019-04-12T10:16:38.560Z,286.88
2019-04-12T10:17:38.636Z,286.88
2019-04-12T10:18:39.450Z,286.88
2019-04-12T10:19:39.980Z,292.5
2019-04-12T10:20:40.769Z,292.5
2019-04-12T10:21:40.984Z,303.75
2019-04-12T10:22:42.208Z,309.38
2019-04-12T10:23:42.380Z,315
2019-04-12T10:24:44.071Z,315
2019-04-12T10:25:44.112Z,315
2019-04-12T10:26:45.163Z,315
2019-04-12T10:27:49.012Z,309.38
2019-04-12T10:28:56.017Z,303.75
2019-04-12T10:29:56.419Z,298.13
2019-04-12T10:30:57.681Z,298.13
2019-04-12T10:31:58.674Z,298.13
2019-04-12T10:32:59.425Z,298.13
2019-04-12T10:33:59.672Z,298.13
2019-04-12T10:35:03.511Z,292.5
2019-04-12T10:36:00.422Z,286.88
2019-04-12T10:37:01.839Z,281.25
2019-04-12T10:38:02.318Z,281.25
2019-04-12T10:39:03.259Z,286.88
2019-04-12T10:40:03.177Z,292.5
2019-04-12T10:41:04.522Z,298.13
2019-04-12T10:42:05.380Z,292.5
2019-04-12T10:43:06.938Z,298.13
2019-04-12T10:44:07.786Z,298.13
2019-04-12T10:45:09.165Z,292.5
2019-04-12T10:46:10.285Z,286.88
2019-04-12T10:47:11.432Z,281.25
2019-04-12T10:48:11.787Z,281.25
2019-04-12T10:49:18.914Z,281.25
2019-04-12T10:49:23.323Z,281.25
2019-04-12T10:50:22.755Z,292.5
2019-04-12T10:51:25.924Z,303.75
2019-04-12T10:52:25.686Z,303.75
2019-04-12T10:53:26.474Z,303.75
2019-04-12T10:54:27.383Z,303.75
2019-04-12T10:55:28.948Z,292.5
2019-04-12T10:56:28.586Z,286.88
2019-04-12T10:57:29.141Z,281.25
2019-04-12T10:58:29.633Z,275.63
2019-04-12T10:59:30.255Z,270
2019-04-12T11:00:32.352Z,270
2019-04-12T11:01:32.269Z,270
2019-04-12T11:02:33.513Z,270
2019-04-12T11:03:35.855Z,270
2019-04-12T11:04:36.053Z,270
2019-04-12T11:05:36.775Z,270
2019-04-12T11:06:38.111Z,264.38
2019-04-12T11:07:37.924Z,258.75
2019-04-12T11:08:38.415Z,258.75
2019-04-12T11:09:39.186Z,258.75
2019-04-12T11:10:40.375Z,258.75
2019-04-12T11:11:41.666Z,258.75
2019-04-12T11:12:41.443Z,253.13
2019-04-12T11:13:42.160Z,247.5
2019-04-12T11:14:44.260Z,241.88
2019-04-12T11:15:45.700Z,247.5
2019-04-12T11:16:46.928Z,247.5
2019-04-12T11:17:48.654Z,253.13
2019-04-12T11:18:48.856Z,253.13
2019-04-12T11:19:50.118Z,258.75
2019-04-12T11:20:51.142Z,270
2019-04-12T11:21:51.499Z,281.25
2019-04-12T11:22:55.078Z,292.5
2019-04-12T11:23:55.512Z,303.75
2019-04-12T11:24:57.174Z,309.38
2019-04-12T11:25:58.083Z,309.38
2019-04-12T11:26:57.929Z,309.38
2019-04-12T11:27:59.440Z,309.38
2019-04-12T11:29:15.898Z,309.38
2019-04-12T11:29:20.829Z,309.38
2019-04-12T11:30:20.398Z,309.38
2019-04-12T11:31:21.395Z,303.75
2019-04-12T11:32:23.942Z,298.13
2019-04-12T11:33:24.215Z,286.88
2019-04-12T11:34:24.433Z,286.88
2019-04-12T11:35:25.595Z,281.25
2019-04-12T11:36:26.171Z,281.25
2019-04-12T11:37:27.312Z,281.25
2019-04-12T11:38:27.805Z,281.25
2019-04-12T11:39:28.875Z,281.25
2019-04-12T11:40:29.174Z,286.88
2019-04-12T11:41:29.059Z,292.5
2019-04-12T11:42:30.152Z,298.13
2019-04-12T11:43:32.055Z,309.38
2019-04-12T11:44:32.526Z,326.25
2019-04-12T11:45:32.487Z,337.5
2019-04-12T11:46:43.035Z,337.5
2019-04-12T11:47:44.388Z,331.88
2019-04-12T11:48:45.436Z,326.25
2019-04-12T11:49:46.001Z,320.63
2019-04-12T11:50:46.556Z,315
2019-04-12T11:51:47.270Z,309.38
2019-04-12T11:52:48.576Z,292.5
2019-04-12T11:53:49.254Z,281.25
2019-04-12T11:54:50.390Z,270
2019-04-12T11:55:50.791Z,270
2019-04-12T11:56:57.749Z,270
2019-04-12T11:57:08.298Z,270
2019-04-12T11:57:14.343Z,270
2019-04-12T11:58:15.957Z,275.63
2019-04-12T11:59:13.449Z,281.25
2019-04-12T12:00:14.514Z,286.88
2019-04-12T12:01:14.728Z,286.88
2019-04-12T12:02:15.316Z,292.5
2019-04-12T12:03:19.706Z,303.75
2019-04-12T12:04:18.656Z,315
2019-04-12T12:05:18.489Z,315
2019-04-12T12:06:19.490Z,315
2019-04-12T12:07:23.044Z,303.75
2019-04-12T12:08:21.805Z,292.5
2019-04-12T12:09:25.110Z,275.63
2019-04-12T12:10:23.651Z,253.13
2019-04-12T12:11:26.396Z,236.25
2019-04-12T12:12:25.448Z,230.63
2019-04-12T12:13:27.644Z,225
2019-04-12T12:14:27.895Z,225
2019-04-12T12:15:31.376Z,219.38
2019-04-12T12:16:31.210Z,208.13
2019-04-12T12:17:29.658Z,191.25
2019-04-12T12:18:30.049Z,180
2019-04-12T12:19:32.353Z,174.38
2019-04-12T12:20:32.981Z,174.38
2019-04-12T12:21:33.882Z,174.38
2019-04-12T12:22:35.170Z,168.75
2019-04-12T12:23:35.497Z,168.75
2019-04-12T12:24:36.531Z,168.75
2019-04-12T12:25:36.804Z,168.75
2019-04-12T12:26:37.912Z,168.75
2019-04-12T12:27:38.698Z,168.75
2019-04-12T12:28:38.961Z,168.75
2019-04-12T12:29:45.560Z,168.75
2019-04-12T12:29:49.787Z,168.75
2019-04-12T12:30:50.745Z,168.75
2019-04-12T12:31:51.240Z,174.38
2019-04-12T12:32:52.307Z,174.38
2019-04-12T12:33:53.170Z,180
2019-04-12T12:34:53.730Z,180
2019-04-12T12:35:54.780Z,180
2019-04-12T12:36:55.338Z,180
2019-04-12T12:37:55.587Z,180
2019-04-12T12:38:56.077Z,185.63
2019-04-12T12:39:56.896Z,185.63
2019-04-12T12:40:58.107Z,191.25
2019-04-12T12:41:58.898Z,196.88
2019-04-12T12:42:59.666Z,202.5
2019-04-12T12:44:00.197Z,208.13
2019-04-12T12:45:00.966Z,213.75
2019-04-12T12:46:01.456Z,219.38
2019-04-12T12:47:02.068Z,225
2019-04-12T12:48:02.831Z,230.63
2019-04-12T12:49:04.152Z,230.63
2019-04-12T12:50:05.206Z,236.25
2019-04-12T12:51:05.558Z,241.88
2019-04-12T12:52:06.377Z,247.5
2019-04-12T12:53:06.155Z,247.5
2019-04-12T12:54:06.988Z,253.13
2019-04-12T12:55:07.786Z,253.13
2019-04-12T12:56:08.549Z,258.75
2019-04-12T12:57:10.169Z,258.75
2019-04-12T12:58:09.955Z,258.75
2019-04-12T12:59:25.470Z,253.13
2019-04-12T13:00:27.774Z,241.88
2019-04-12T13:00:33.479Z,241.88
2019-04-12T13:01:32.288Z,236.25
2019-04-12T13:02:32.492Z,230.63
2019-04-12T13:03:57.200Z,219.38
2019-04-12T13:04:53.764Z,213.75
2019-04-12T13:05:54.961Z,202.5
2019-04-12T13:06:55.999Z,196.88
2019-04-12T13:07:57.092Z,191.25
2019-04-12T13:08:57.734Z,191.25
2019-04-12T13:09:57.385Z,185.63
2019-04-12T13:10:58.318Z,185.63
2019-04-12T13:11:58.835Z,185.63
2019-04-12T13:12:59.046Z,185.63
2019-04-12T13:13:59.853Z,202.5
2019-04-12T13:15:00.690Z,185.63
2019-04-12T13:16:00.187Z,191.25
2019-04-12T13:17:00.680Z,196.88
2019-04-12T13:18:01.452Z,202.5
2019-04-12T13:19:02.746Z,208.13
2019-04-12T13:20:03.322Z,213.75
2019-04-12T13:21:03.286Z,213.75
2019-04-12T13:22:04.062Z,213.75
2019-04-12T13:23:04.865Z,213.75
2019-04-12T13:24:05.629Z,208.13
2019-04-12T13:25:06.473Z,208.13
2019-04-12T13:26:08.178Z,208.13
2019-04-12T13:27:07.673Z,202.5
2019-04-12T13:28:11.103Z,202.5
2019-04-12T13:29:10.819Z,191.25
2019-04-12T13:30:11.166Z,185.63
2019-04-12T13:31:12.168Z,180
2019-04-12T13:32:12.391Z,174.38
2019-04-12T13:33:13.754Z,168.75